Time;durP1;ratioP1;P1;durP2;ratioP2;P2;SDS_P1;SDS_P2;PMS_P1;PMS_P2;Temp;Humidity;BMP_temperature;BMP_pressure;BME280_temperature;BME280_humidity;BME280_pressure;Samples;Min_cycle;Max_cycle;Signal;HPM_P1;HPM_P2
2023/04/10 00:02:08;;;;;;;;;14.33;14.33;;;;;;;;5074387;27;45535;-61
2023/04/10 00:04:35;;;;;;;;;15.00;14.67;;;;;;;;5064965;27;45627;-61
2023/04/10 00:07:00;;;;;;;;;17.33;16.00;;;;;;;;5075269;27;46229;-61
2023/04/10 00:09:26;;;;;;;;;17.67;16.67;;;;;;;;5066247;27;45536;-61
2023/04/10 00:11:51;;;;;;;;;18.67;15.00;;;;;;;;5075464;27;45474;-61
2023/04/10 00:14:21;;;;;;;;;18.33;17.00;;;;;;;;5068996;27;45598;-61
2023/04/10 00:16:47;;;;;;;;;15.67;15.67;;;;;;;;5075240;27;46095;-61
2023/04/10 00:19:12;;;;;;;;;17.67;17.00;;;;;;;;5075001;27;45488;-61
2023/04/10 00:21:37;;;;;;;;;18.67;16.67;;;;;;;;5075147;27;45423;-61
2023/04/10 00:24:03;;;;;;;;;18.67;18.33;;;;;;;;5075235;27;45657;-61
2023/04/10 00:26:28;;;;;;;;;19.00;17.33;;;;;;;;5075355;27;45982;-61
2023/04/10 00:28:54;;;;;;;;;18.00;15.67;;;;;;;;5075131;27;45485;-61
2023/04/10 00:31:19;;;;;;;;;16.67;14.67;;;;;;;;5067471;27;45949;-61
2023/04/10 00:33:44;;;;;;;;;16.67;14.67;;;;;;;;5075243;27;45454;-61
2023/04/10 00:36:09;;;;;;;;;13.33;11.67;;;;;;;;5074022;27;45453;-60
2023/04/10 00:38:36;;;;;;;;;16.00;14.33;;;;;;;;5075076;27;45438;-61
2023/04/10 00:41:01;;;;;;;;;13.33;13.00;;;;;;;;5075199;28;45547;-61
2023/04/10 00:43:27;;;;;;;;;10.33;10.33;;;;;;;;5074753;27;45574;-61
2023/04/10 00:45:52;;;;;;;;;15.67;15.00;;;;;;;;5074867;27;46031;-61
2023/04/10 00:48:17;;;;;;;;;12.33;12.33;;;;;;;;5074041;27;45482;-61
2023/04/10 00:50:42;;;;;;;;;17.33;16.33;;;;;;;;5075984;27;45354;-61
2023/04/10 00:53:08;;;;;;;;;16.33;14.33;;;;;;;;5074262;27;45475;-61
2023/04/10 00:55:33;;;;;;;;;11.33;11.33;;;;;;;;5074482;27;45550;-61
2023/04/10 00:57:58;;;;;;;;;13.33;11.33;;;;;;;;5074640;27;45550;-61
2023/04/10 01:00:23;;;;;;;;;17.33;17.00;;;;;;;;5074736;27;45491;-61
2023/04/10 01:02:48;;;;;;;;;10.67;10.67;;;;;;;;5074669;27;45483;-61
2023/04/10 01:05:14;;;;;;;;;15.00;14.67;;;;;;;;5073677;27;46462;-61
2023/04/10 01:07:58;;;;;;;;;12.67;12.33;;;;;;;;5071344;27;45446;-61
2023/04/10 01:10:36;;;;;;;;;12.33;12.33;;;;;;;;5069120;27;45440;-61
2023/04/10 01:13:19;;;;;;;;;16.33;15.00;;;;;;;;5074448;27;45546;-61
2023/04/10 01:15:48;;;;;;;;;14.67;14.67;;;;;;;;5073442;27;45512;-61
2023/04/10 01:18:25;;;;;;;;;15.00;14.67;;;;;;;;5073816;27;45493;-61
2023/04/10 01:20:50;;;;;;;;;18.67;15.00;;;;;;;;5073288;27;45604;-61
2023/04/10 01:23:18;;;;;;;;;18.00;18.00;;;;;;;;5071944;27;45438;-61
2023/04/10 01:25:43;;;;;;;;;12.00;10.00;;;;;;;;5070030;28;46510;-61
2023/04/10 01:28:23;;;;;;;;;15.33;13.33;;;;;;;;5073848;27;45592;-61
2023/04/10 01:30:56;;;;;;;;;16.67;16.00;;;;;;;;5072553;27;45587;-61
2023/04/10 01:33:25;;;;;;;;;18.00;15.67;;;;;;;;5073823;27;45583;-61
2023/04/10 01:35:53;;;;;;;;;15.33;12.00;;;;;;;;5073610;27;46283;-61
2023/04/10 01:38:20;;;;;;;;;15.67;15.00;;;;;;;;5073131;28;45428;-61
2023/04/10 01:40:49;;;;;;;;;15.00;15.00;;;;;;;;5074040;27;45556;-61
2023/04/10 01:43:15;;;;;;;;;14.00;14.00;;;;;;;;5072539;27;45588;-61
2023/04/10 01:45:42;;;;;;;;;16.00;14.67;;;;;;;;5073824;27;46377;-61
2023/04/10 01:48:07;;;;;;;;;12.33;12.33;;;;;;;;5073792;27;45489;-61
2023/04/10 01:50:33;;;;;;;;;15.00;15.00;;;;;;;;5074067;27;45513;-61
2023/04/10 01:52:59;;;;;;;;;11.00;11.00;;;;;;;;5074163;28;45416;-61
2023/04/10 01:55:26;;;;;;;;;14.67;13.00;;;;;;;;5072893;28;46261;-61
2023/04/10 01:57:52;;;;;;;;;15.33;15.33;;;;;;;;5073890;27;45616;-61
2023/04/10 02:00:17;;;;;;;;;14.33;14.33;;;;;;;;5073034;27;45600;-61
2023/04/10 02:02:42;;;;;;;;;20.33;19.00;;;;;;;;5072986;27;45523;-61
2023/04/10 02:05:09;;;;;;;;;14.33;14.00;;;;;;;;5059421;27;45605;-61
2023/04/10 02:07:44;;;;;;;;;18.33;14.67;;;;;;;;5072847;27;45555;-61
2023/04/10 02:10:11;;;;;;;;;15.00;14.00;;;;;;;;5071778;27;45633;-61
2023/04/10 02:12:58;;;;;;;;;16.67;16.00;;;;;;;;5072307;28;45614;-61
2023/04/10 02:15:25;;;;;;;;;14.33;14.33;;;;;;;;5063822;28;46220;-61
2023/04/10 02:17:51;;;;;;;;;14.00;14.00;;;;;;;;5073501;28;45404;-61
2023/04/10 02:20:17;;;;;;;;;14.67;12.33;;;;;;;;5071955;28;45395;-61
2023/04/10 02:22:43;;;;;;;;;20.00;15.33;;;;;;;;5070857;28;45554;-61
2023/04/10 02:25:08;;;;;;;;;13.00;13.00;;;;;;;;5072203;27;46269;-61
2023/04/10 02:27:34;;;;;;;;;17.00;16.00;;;;;;;;5072767;27;45460;-61
2023/04/10 02:30:02;;;;;;;;;14.67;12.67;;;;;;;;5072448;27;45615;-61
2023/04/10 02:32:27;;;;;;;;;13.67;12.67;;;;;;;;5072472;27;45410;-61
2023/04/10 02:34:52;;;;;;;;;14.00;12.00;;;;;;;;5071192;28;45532;-61
2023/04/10 02:37:17;;;;;;;;;16.67;15.67;;;;;;;;5072566;27;45494;-61
2023/04/10 02:39:43;;;;;;;;;16.00;16.00;;;;;;;;5072180;27;45496;-61
2023/04/10 02:42:10;;;;;;;;;14.67;14.33;;;;;;;;5073229;28;45563;-61
2023/04/10 02:44:35;;;;;;;;;16.67;15.00;;;;;;;;5072248;27;45615;-61
2023/04/10 02:47:00;;;;;;;;;14.00;14.00;;;;;;;;5073131;27;45488;-61
2023/04/10 02:49:26;;;;;;;;;15.00;13.67;;;;;;;;5064720;27;45545;-61
2023/04/10 02:51:51;;;;;;;;;16.00;16.00;;;;;;;;5072375;27;45613;-62
2023/04/10 02:54:16;;;;;;;;;15.33;13.00;;;;;;;;5072319;28;46308;-61
2023/04/10 02:56:41;;;;;;;;;19.00;16.00;;;;;;;;5072693;27;45608;-60
2023/04/10 02:59:06;;;;;;;;;16.67;16.33;;;;;;;;5070072;27;45562;-60
2023/04/10 03:01:32;;;;;;;;;15.33;15.33;;;;;;;;5075779;27;45599;-60
2023/04/10 03:03:57;;;;;;;;;16.33;16.33;;;;;;;;5069330;27;46696;-61
2023/04/10 03:06:25;;;;;;;;;16.67;15.33;;;;;;;;5073650;27;45756;-60
2023/04/10 03:08:51;;;;;;;;;12.67;12.67;;;;;;;;5076453;27;45570;-61
2023/04/10 03:11:16;;;;;;;;;16.00;14.00;;;;;;;;5076438;27;45390;-60
2023/04/10 03:13:41;;;;;;;;;15.67;14.33;;;;;;;;5076353;27;45536;-60
2023/04/10 03:16:06;;;;;;;;;13.67;13.67;;;;;;;;5076299;27;45548;-60
2023/04/10 03:18:33;;;;;;;;;17.67;16.67;;;;;;;;5076547;27;45497;-60
2023/04/10 03:20:58;;;;;;;;;18.33;16.67;;;;;;;;5075986;27;45629;-60
2023/04/10 03:23:23;;;;;;;;;16.00;16.00;;;;;;;;5075830;27;46153;-60
2023/04/10 03:25:50;;;;;;;;;16.67;16.67;;;;;;;;5076240;27;45483;-60
2023/04/10 03:28:15;;;;;;;;;14.33;14.33;;;;;;;;5076357;27;45529;-60
2023/04/10 03:30:40;;;;;;;;;17.00;15.67;;;;;;;;5074424;27;45611;-60
2023/04/10 03:33:05;;;;;;;;;17.67;16.67;;;;;;;;5075925;27;45839;-60
2023/04/10 03:35:30;;;;;;;;;18.00;15.67;;;;;;;;5075936;27;45816;-60
2023/04/10 03:37:56;;;;;;;;;11.00;9.33;;;;;;;;5075044;27;45587;-60
2023/04/10 03:40:21;;;;;;;;;18.00;18.00;;;;;;;;5075986;27;45691;-60
2023/04/10 03:42:46;;;;;;;;;17.67;15.67;;;;;;;;5074533;27;46936;-60
2023/04/10 03:45:11;;;;;;;;;17.00;17.00;;;;;;;;5075895;27;45577;-60
2023/04/10 03:47:37;;;;;;;;;17.00;14.67;;;;;;;;5076184;27;45414;-60
2023/04/10 03:50:02;;;;;;;;;17.00;16.67;;;;;;;;5076050;27;45510;-60
2023/04/10 03:52:27;;;;;;;;;19.00;19.00;;;;;;;;5075566;27;45457;-60
2023/04/10 03:54:53;;;;;;;;;15.00;14.00;;;;;;;;5074956;27;45444;-60
2023/04/10 03:57:19;;;;;;;;;17.33;13.33;;;;;;;;5075791;27;45504;-60
2023/04/10 03:59:45;;;;;;;;;17.33;17.33;;;;;;;;5075843;27;45642;-60
2023/04/10 04:02:10;;;;;;;;;17.00;17.00;;;;;;;;5075203;27;45408;-60
2023/04/10 04:04:35;;;;;;;;;16.00;16.00;;;;;;;;5075247;27;45499;-60
2023/04/10 04:07:00;;;;;;;;;15.33;13.67;;;;;;;;5071443;27;45643;-60
2023/04/10 04:09:26;;;;;;;;;15.00;15.00;;;;;;;;5072717;27;45630;-60
2023/04/10 04:11:51;;;;;;;;;14.67;13.33;;;;;;;;5075281;27;45523;-60
2023/04/10 04:14:16;;;;;;;;;16.00;15.67;;;;;;;;5074355;27;45653;-60
2023/04/10 04:16:41;;;;;;;;;15.33;15.33;;;;;;;;5070232;27;45420;-60
2023/04/10 04:19:06;;;;;;;;;14.33;12.67;;;;;;;;5066021;27;45328;-61
2023/04/10 04:21:31;;;;;;;;;14.00;13.00;;;;;;;;5073572;27;45512;-60
2023/04/10 04:23:57;;;;;;;;;16.33;16.00;;;;;;;;5068695;27;45595;-60
2023/04/10 04:26:23;;;;;;;;;17.00;15.33;;;;;;;;5073466;27;45565;-60
2023/04/10 04:28:49;;;;;;;;;18.67;17.67;;;;;;;;5074637;27;45492;-60
2023/04/10 04:31:15;;;;;;;;;14.67;14.67;;;;;;;;5074715;27;45950;-60
2023/04/10 04:33:40;;;;;;;;;16.00;16.00;;;;;;;;5075004;27;45551;-60
2023/04/10 04:36:05;;;;;;;;;16.67;16.67;;;;;;;;5071705;27;45479;-60
2023/04/10 04:38:30;;;;;;;;;15.00;14.67;;;;;;;;5074408;27;45511;-60
2023/04/10 04:40:55;;;;;;;;;14.33;13.00;;;;;;;;5074538;27;46174;-60
2023/04/10 04:43:21;;;;;;;;;11.67;11.67;;;;;;;;5073383;27;45492;-60
2023/04/10 04:45:46;;;;;;;;;12.67;12.00;;;;;;;;5074064;27;45676;-60
2023/04/10 04:48:11;;;;;;;;;16.67;15.67;;;;;;;;5074766;27;45558;-60
2023/04/10 04:50:39;;;;;;;;;14.33;12.33;;;;;;;;5074539;27;46318;-60
2023/04/10 04:53:04;;;;;;;;;14.33;14.33;;;;;;;;5074593;27;45522;-60
2023/04/10 04:55:29;;;;;;;;;15.67;15.00;;;;;;;;5074600;27;45421;-60
2023/04/10 04:57:54;;;;;;;;;13.67;13.67;;;;;;;;5066834;28;45433;-60
2023/04/10 05:00:20;;;;;;;;;15.67;14.67;;;;;;;;5074326;27;46370;-60
2023/04/10 05:02:45;;;;;;;;;14.33;14.00;;;;;;;;5069717;27;45552;-60
2023/04/10 05:05:10;;;;;;;;;15.00;13.00;;;;;;;;5074910;28;45510;-60
2023/04/10 05:07:35;;;;;;;;;12.00;10.33;;;;;;;;5074402;27;45560;-60
2023/04/10 05:10:00;;;;;;;;;14.00;14.00;;;;;;;;5074317;27;46934;-60
2023/04/10 05:12:26;;;;;;;;;15.00;12.67;;;;;;;;5074567;27;45523;-60
2023/04/10 05:14:51;;;;;;;;;14.33;14.33;;;;;;;;5074555;27;45535;-60
2023/04/10 05:17:16;;;;;;;;;14.67;12.33;;;;;;;;5074401;27;45568;-60
2023/04/10 05:19:41;;;;;;;;;14.67;14.67;;;;;;;;5073579;28;46135;-60
2023/04/10 05:22:07;;;;;;;;;15.67;15.33;;;;;;;;5073672;27;45528;-60
2023/04/10 05:24:32;;;;;;;;;18.00;16.00;;;;;;;;5074215;27;45473;-60
2023/04/10 05:26:57;;;;;;;;;21.33;17.67;;;;;;;;5074457;27;45478;-60
2023/04/10 05:29:23;;;;;;;;;20.00;18.67;;;;;;;;5074018;27;46037;-60
2023/04/10 05:31:48;;;;;;;;;20.67;19.67;;;;;;;;5074068;27;45532;-60
2023/04/10 05:34:14;;;;;;;;;19.00;19.00;;;;;;;;5073969;27;45516;-60
2023/04/10 05:36:39;;;;;;;;;18.00;18.00;;;;;;;;5068687;28;45601;-60
2023/04/10 05:39:04;;;;;;;;;20.67;19.67;;;;;;;;5073866;27;46167;-60
2023/04/10 05:41:29;;;;;;;;;21.00;21.00;;;;;;;;5073079;27;45456;-60
2023/04/10 05:43:55;;;;;;;;;18.50;18.50;;;;;;;;5073829;28;45446;-60
2023/04/10 05:46:20;;;;;;;;;19.33;18.67;;;;;;;;5073834;28;45442;-60
2023/04/10 05:48:45;;;;;;;;;17.67;16.67;;;;;;;;5073408;27;46797;-60
2023/04/10 05:51:10;;;;;;;;;18.00;17.00;;;;;;;;5073614;27;45398;-60
2023/04/10 05:53:35;;;;;;;;;16.67;15.67;;;;;;;;5073020;27;45476;-60
2023/04/10 05:56:01;;;;;;;;;19.00;17.67;;;;;;;;5073351;27;45399;-60
2023/04/10 05:58:26;;;;;;;;;17.33;12.67;;;;;;;;5073487;27;45493;-60
2023/04/10 06:00:51;;;;;;;;;16.67;15.00;;;;;;;;5073331;27;45875;-60
2023/04/10 06:03:17;;;;;;;;;16.67;16.67;;;;;;;;5073823;27;45831;-60
2023/04/10 06:05:42;;;;;;;;;14.33;14.33;;;;;;;;5073755;28;45481;-60
2023/04/10 06:08:07;;;;;;;;;17.33;16.00;;;;;;;;5071280;28;47208;-61
2023/04/10 06:10:32;;;;;;;;;13.67;13.67;;;;;;;;5072327;27;45478;-61
2023/04/10 06:12:58;;;;;;;;;17.00;14.00;;;;;;;;5073504;28;45611;-61
2023/04/10 06:15:23;;;;;;;;;13.00;11.33;;;;;;;;5072087;28;45479;-61
2023/04/10 06:17:48;;;;;;;;;15.33;13.67;;;;;;;;5069595;27;45562;-62
2023/04/10 06:20:13;;;;;;;;;16.33;15.33;;;;;;;;5072309;27;45431;-61
2023/04/10 06:22:38;;;;;;;;;16.33;15.00;;;;;;;;5073638;27;45548;-61
2023/04/10 06:25:04;;;;;;;;;17.00;16.00;;;;;;;;5072519;27;45596;-61
2023/04/10 06:27:29;;;;;;;;;16.00;16.00;;;;;;;;5067592;27;45487;-62
2023/04/10 06:29:55;;;;;;;;;16.67;16.00;;;;;;;;5070513;28;45455;-61
2023/04/10 06:32:22;;;;;;;;;17.00;15.67;;;;;;;;5072641;27;45520;-58
2023/04/10 06:34:48;;;;;;;;;15.33;13.67;;;;;;;;5075018;27;45488;-58
2023/04/10 06:37:13;;;;;;;;;15.00;13.00;;;;;;;;5076435;27;46079;-58
2023/04/10 06:39:38;;;;;;;;;15.67;15.67;;;;;;;;5076399;27;45494;-58
2023/04/10 06:42:03;;;;;;;;;13.00;13.00;;;;;;;;5076922;27;45546;-58
2023/04/10 06:44:29;;;;;;;;;19.67;15.67;;;;;;;;5073792;27;45519;-59
2023/04/10 06:46:54;;;;;;;;;14.00;13.33;;;;;;;;5073337;27;45438;-58
2023/04/10 06:49:19;;;;;;;;;12.33;12.00;;;;;;;;5076793;27;45477;-59
2023/04/10 06:51:47;;;;;;;;;19.00;17.67;;;;;;;;5073646;27;45631;-59
2023/04/10 06:54:12;;;;;;;;;12.67;12.67;;;;;;;;5076602;27;45611;-58
2023/04/10 06:56:37;;;;;;;;;12.00;12.00;;;;;;;;5076693;27;45603;-58
2023/04/10 06:59:02;;;;;;;;;15.00;15.00;;;;;;;;5076531;27;45788;-58
2023/04/10 07:01:27;;;;;;;;;14.00;13.00;;;;;;;;5076772;27;45488;-58
2023/04/10 07:03:53;;;;;;;;;14.00;14.00;;;;;;;;5076608;27;45563;-58
2023/04/10 07:06:18;;;;;;;;;16.00;12.67;;;;;;;;5076351;27;45468;-58
2023/04/10 07:08:43;;;;;;;;;15.33;12.67;;;;;;;;5076274;27;45647;-58
2023/04/10 07:11:08;;;;;;;;;15.00;12.67;;;;;;;;5076425;27;45378;-58
2023/04/10 07:13:34;;;;;;;;;11.67;11.33;;;;;;;;5076109;27;45382;-58
2023/04/10 07:15:59;;;;;;;;;11.00;11.00;;;;;;;;5076103;27;46168;-58
2023/04/10 07:18:25;;;;;;;;;15.33;13.00;;;;;;;;5074602;27;45407;-58
2023/04/10 07:20:50;;;;;;;;;15.33;15.33;;;;;;;;5074561;27;45450;-57
2023/04/10 07:23:15;;;;;;;;;15.67;15.00;;;;;;;;5075656;27;45486;-60
2023/04/10 07:25:41;;;;;;;;;12.00;11.00;;;;;;;;5076019;27;45994;-60
2023/04/10 07:28:06;;;;;;;;;11.67;11.67;;;;;;;;5076202;27;45525;-59
2023/04/10 07:30:31;;;;;;;;;13.00;13.00;;;;;;;;5074668;27;45504;-59
2023/04/10 07:32:57;;;;;;;;;12.33;12.33;;;;;;;;5075928;27;45399;-59
2023/04/10 07:35:22;;;;;;;;;15.33;13.00;;;;;;;;5075670;27;46320;-59
2023/04/10 07:37:50;;;;;;;;;11.67;10.67;;;;;;;;5075948;27;45477;-59
2023/04/10 07:40:15;;;;;;;;;14.33;12.67;;;;;;;;5075858;27;45647;-59
2023/04/10 07:42:41;;;;;;;;;11.33;11.33;;;;;;;;5076001;27;45481;-60
2023/04/10 07:45:06;;;;;;;;;13.33;13.33;;;;;;;;5075528;27;46051;-59
2023/04/10 07:47:32;;;;;;;;;6.00;6.00;;;;;;;;5075964;27;45438;-59
2023/04/10 07:49:57;;;;;;;;;11.00;11.00;;;;;;;;5075969;27;45546;-59
2023/04/10 07:52:22;;;;;;;;;14.33;13.33;;;;;;;;5074134;27;45677;-60
2023/04/10 07:54:47;;;;;;;;;17.67;14.67;;;;;;;;5074637;27;45640;-59
2023/04/10 07:57:12;;;;;;;;;10.00;10.00;;;;;;;;5073081;27;45567;-59
2023/04/10 07:59:38;;;;;;;;;9.00;9.00;;;;;;;;5075053;27;45405;-58
2023/04/10 08:02:03;;;;;;;;;14.00;14.00;;;;;;;;5073882;27;45547;-59
2023/04/10 08:04:28;;;;;;;;;14.67;12.67;;;;;;;;5070764;28;46042;-61
2023/04/10 08:06:53;;;;;;;;;14.00;14.00;;;;;;;;5068570;27;45387;-65
2023/04/10 08:09:18;;;;;;;;;12.33;12.33;;;;;;;;5072935;27;45419;-62
2023/04/10 08:11:44;;;;;;;;;15.00;15.00;;;;;;;;5075044;27;45451;-64
2023/04/10 08:14:09;;;;;;;;;11.67;11.67;;;;;;;;5075156;27;45612;-64
2023/04/10 08:16:35;;;;;;;;;13.33;10.33;;;;;;;;5074859;27;45539;-67
2023/04/10 08:19:00;;;;;;;;;12.00;9.33;;;;;;;;5075332;27;45516;-64
2023/04/10 08:21:26;;;;;;;;;12.00;12.00;;;;;;;;5071259;27;45499;-60
2023/04/10 08:23:52;;;;;;;;;7.33;7.33;;;;;;;;5074864;27;46396;-63
2023/04/10 08:26:18;;;;;;;;;10.00;10.00;;;;;;;;5074819;27;45584;-65
2023/04/10 08:28:48;;;;;;;;;10.00;10.00;;;;;;;;5073970;27;45488;-62
2023/04/10 08:31:13;;;;;;;;;12.00;9.00;;;;;;;;5073221;27;45646;-60
2023/04/10 08:33:38;;;;;;;;;11.67;10.00;;;;;;;;5074808;27;45463;-60
2023/04/10 08:36:04;;;;;;;;;10.33;10.33;;;;;;;;5073308;27;46394;-66
2023/04/10 08:38:29;;;;;;;;;13.33;12.67;;;;;;;;5075038;27;45408;-63
2023/04/10 08:40:55;;;;;;;;;9.67;9.67;;;;;;;;5073397;27;46058;-64
2023/04/10 08:43:20;;;;;;;;;11.33;9.33;;;;;;;;5073387;27;46228;-60
2023/04/10 08:45:45;;;;;;;;;9.67;9.67;;;;;;;;5069991;27;45501;-59
2023/04/10 08:48:12;;;;;;;;;9.33;9.33;;;;;;;;5074220;28;45446;-59
2023/04/10 08:50:40;;;;;;;;;10.33;10.00;;;;;;;;5069945;27;45637;-62
2023/04/10 08:53:11;;;;;;;;;10.00;10.00;;;;;;;;5074494;27;45536;-63
2023/04/10 08:55:38;;;;;;;;;9.67;9.67;;;;;;;;5073334;27;45758;-64
2023/04/10 08:58:03;;;;;;;;;13.00;12.00;;;;;;;;5074634;27;45512;-63
2023/04/10 09:00:33;;;;;;;;;10.33;10.00;;;;;;;;5073880;27;45468;-62
2023/04/10 09:02:58;;;;;;;;;13.33;11.33;;;;;;;;5072063;28;45572;-62
2023/04/10 09:05:27;;;;;;;;;11.33;10.00;;;;;;;;5065778;27;45453;-67
2023/04/10 09:07:52;;;;;;;;;10.33;10.00;;;;;;;;5074212;27;45414;-60
2023/04/10 09:10:17;;;;;;;;;13.67;12.33;;;;;;;;5068748;27;45512;-59
2023/04/10 09:12:44;;;;;;;;;12.00;10.00;;;;;;;;5073965;27;46044;-58
2023/04/10 09:15:10;;;;;;;;;7.33;6.33;;;;;;;;5074430;27;45487;-58
2023/04/10 09:17:35;;;;;;;;;11.67;10.33;;;;;;;;5065840;27;45472;-59
2023/04/10 09:20:00;;;;;;;;;10.67;10.00;;;;;;;;5072811;27;45701;-59
2023/04/10 09:22:32;;;;;;;;;11.67;10.33;;;;;;;;5073797;27;45598;-59
2023/04/10 09:24:58;;;;;;;;;9.00;9.00;;;;;;;;5073987;27;45560;-59
2023/04/10 09:27:41;;;;;;;;;9.33;9.33;;;;;;;;5063974;27;45589;-60
2023/04/10 09:30:07;;;;;;;;;12.33;10.67;;;;;;;;5072957;28;45469;-59
2023/04/10 09:32:39;;;;;;;;;12.00;12.00;;;;;;;;5073148;27;46063;-59
2023/04/10 09:35:06;;;;;;;;;11.00;11.00;;;;;;;;5070898;27;45882;-60
2023/04/10 09:37:32;;;;;;;;;18.33;13.33;;;;;;;;5074139;27;45470;-59
2023/04/10 09:39:57;;;;;;;;;9.00;9.00;;;;;;;;5073898;27;45595;-59
2023/04/10 09:42:36;;;;;;;;;10.33;9.00;;;;;;;;5073097;27;45479;-59
2023/04/10 09:45:02;;;;;;;;;10.00;9.00;;;;;;;;5070326;27;45546;-59
2023/04/10 09:47:27;;;;;;;;;9.33;9.33;;;;;;;;5073132;27;45567;-60
2023/04/10 09:49:53;;;;;;;;;10.33;9.67;;;;;;;;5071010;27;45723;-59
2023/04/10 09:52:20;;;;;;;;;6.33;6.33;;;;;;;;5063211;27;45589;-60
2023/04/10 09:54:45;;;;;;;;;8.00;8.00;;;;;;;;5073409;27;45512;-59
2023/04/10 09:57:14;;;;;;;;;8.00;8.00;;;;;;;;5073307;27;45458;-59
2023/04/10 09:59:39;;;;;;;;;10.00;10.00;;;;;;;;5071747;27;45540;-60
2023/04/10 10:02:05;;;;;;;;;7.33;7.33;;;;;;;;5070815;27;46335;-60
2023/04/10 10:04:30;;;;;;;;;9.00;7.67;;;;;;;;5071661;27;45579;-60
2023/04/10 10:06:56;;;;;;;;;10.00;10.00;;;;;;;;5069511;27;45437;-60
2023/04/10 10:09:21;;;;;;;;;9.67;8.67;;;;;;;;5063933;27;45742;-60
2023/04/10 10:11:48;;;;;;;;;10.00;10.00;;;;;;;;5071008;27;45598;-59
2023/04/10 10:14:15;;;;;;;;;9.00;7.67;;;;;;;;5067860;27;45577;-56
2023/04/10 10:16:50;;;;;;;;;6.33;6.33;;;;;;;;5062407;27;45416;-59
2023/04/10 10:19:19;;;;;;;;;9.00;9.00;;;;;;;;5073089;27;45581;-59
2023/04/10 10:21:44;;;;;;;;;8.00;8.00;;;;;;;;5072955;27;46028;-59
2023/04/10 10:24:11;;;;;;;;;9.67;9.67;;;;;;;;5072777;27;45499;-59
2023/04/10 10:26:37;;;;;;;;;7.67;7.67;;;;;;;;5073098;28;45445;-60
2023/04/10 10:29:04;;;;;;;;;10.00;8.00;;;;;;;;5073210;27;45410;-59
2023/04/10 10:31:32;;;;;;;;;9.00;8.00;;;;;;;;5073068;27;46330;-59
2023/04/10 10:34:01;;;;;;;;;10.67;9.00;;;;;;;;5071186;27;45405;-59
2023/04/10 10:36:26;;;;;;;;;11.33;11.33;;;;;;;;5072790;27;45577;-59
2023/04/10 10:39:12;;;;;;;;;8.33;8.33;;;;;;;;5073109;27;45431;-59
2023/04/10 10:41:46;;;;;;;;;9.33;9.33;;;;;;;;5061891;27;45498;-59
2023/04/10 10:44:20;;;;;;;;;9.00;9.00;;;;;;;;5073043;27;45590;-59
2023/04/10 10:46:50;;;;;;;;;8.67;7.67;;;;;;;;5073171;28;45519;-59
2023/04/10 10:49:16;;;;;;;;;9.00;9.00;;;;;;;;5072892;27;45495;-58
2023/04/10 10:51:42;;;;;;;;;8.00;8.00;;;;;;;;5072332;27;46312;-59
2023/04/10 10:54:26;;;;;;;;;9.00;9.00;;;;;;;;5072554;28;45516;-58
2023/04/10 10:56:51;;;;;;;;;6.00;6.00;;;;;;;;5072805;27;45445;-58
2023/04/10 10:59:16;;;;;;;;;5.67;5.67;;;;;;;;5072657;28;45504;-59
2023/04/10 11:02:01;;;;;;;;;7.00;7.00;;;;;;;;5072601;27;45575;-59
2023/04/10 11:04:45;;;;;;;;;6.00;6.00;;;;;;;;5071845;27;45583;-59
2023/04/10 11:07:11;;;;;;;;;8.00;6.00;;;;;;;;5072557;27;45546;-60
2023/04/10 11:09:46;;;;;;;;;9.00;7.67;;;;;;;;5071411;27;45371;-59
2023/04/10 11:12:12;;;;;;;;;7.67;7.67;;;;;;;;5072128;27;45468;-61
2023/04/10 11:14:38;;;;;;;;;7.33;6.33;;;;;;;;5071311;27;45492;-59
2023/04/10 11:17:04;;;;;;;;;6.00;6.00;;;;;;;;5072160;27;45378;-59
2023/04/10 11:19:49;;;;;;;;;6.00;6.00;;;;;;;;5073210;27;45516;-59
2023/04/10 11:22:15;;;;;;;;;5.00;5.00;;;;;;;;5074472;27;46243;-59
2023/04/10 11:24:57;;;;;;;;;8.33;7.00;;;;;;;;5075343;27;45493;-59
2023/04/10 11:27:38;;;;;;;;;5.00;5.00;;;;;;;;5075578;27;45592;-59
2023/04/10 11:30:24;;;;;;;;;2.00;2.00;;;;;;;;5074006;27;45563;-59
2023/04/10 11:32:49;;;;;;;;;4.67;4.00;;;;;;;;5075292;27;45456;-59
2023/04/10 11:35:18;;;;;;;;;5.00;5.00;;;;;;;;5074831;27;45430;-60
2023/04/10 11:37:44;;;;;;;;;4.00;4.00;;;;;;;;5075242;27;45570;-59
2023/04/10 11:40:10;;;;;;;;;5.00;4.33;;;;;;;;5075010;27;45547;-59
2023/04/10 11:42:35;;;;;;;;;5.33;5.33;;;;;;;;5073853;27;46338;-60
2023/04/10 11:45:20;;;;;;;;;9.00;8.00;;;;;;;;5075088;27;45554;-59
2023/04/10 11:47:52;;;;;;;;;6.33;6.33;;;;;;;;5075288;27;45573;-59
2023/04/10 11:50:18;;;;;;;;;4.00;4.00;;;;;;;;5073621;27;45569;-59
2023/04/10 11:52:43;;;;;;;;;4.33;4.33;;;;;;;;5074872;27;45783;-59
2023/04/10 11:55:09;;;;;;;;;4.00;4.00;;;;;;;;5074944;27;45614;-59
2023/04/10 11:57:35;;;;;;;;;5.00;5.00;;;;;;;;5075094;27;45438;-59
2023/04/10 12:00:00;;;;;;;;;4.00;4.00;;;;;;;;5075138;27;45647;-59
2023/04/10 12:02:25;;;;;;;;;6.33;5.00;;;;;;;;5074712;27;46688;-59
2023/04/10 12:04:56;;;;;;;;;4.67;4.67;;;;;;;;5073750;27;45641;-59
2023/04/10 12:07:22;;;;;;;;;5.00;5.00;;;;;;;;5073821;27;45526;-59
2023/04/10 12:09:54;;;;;;;;;7.67;7.67;;;;;;;;5074871;27;45529;-59
2023/04/10 12:12:33;;;;;;;;;4.00;4.00;;;;;;;;5074766;27;46571;-58
2023/04/10 12:14:58;;;;;;;;;5.00;5.00;;;;;;;;5074263;27;45558;-60
2023/04/10 12:17:23;;;;;;;;;5.00;5.00;;;;;;;;5074882;27;45591;-60
2023/04/10 12:19:48;;;;;;;;;6.00;5.00;;;;;;;;5073000;27;45596;-60
2023/04/10 12:22:14;;;;;;;;;5.00;5.00;;;;;;;;5074541;27;46248;-60
2023/04/10 12:24:43;;;;;;;;;6.33;4.67;;;;;;;;5074513;27;45610;-59
2023/04/10 12:27:38;;;;;;;;;4.00;3.67;;;;;;;;5074734;27;45501;-58
2023/04/10 12:30:06;;;;;;;;;7.67;6.67;;;;;;;;5060128;27;45528;-58
2023/04/10 12:32:31;;;;;;;;;4.33;4.33;;;;;;;;5073877;27;46035;-58
2023/04/10 12:34:57;;;;;;;;;4.00;4.00;;;;;;;;5074026;27;45713;-57
2023/04/10 12:37:23;;;;;;;;;6.00;4.33;;;;;;;;5074583;27;45531;-57
2023/04/10 12:39:48;;;;;;;;;5.33;5.00;;;;;;;;5074383;27;45547;-59
2023/04/10 12:42:14;;;;;;;;;5.00;5.00;;;;;;;;5074350;27;45501;-60
2023/04/10 12:44:50;;;;;;;;;6.00;6.00;;;;;;;;5074487;27;45504;-60
2023/04/10 12:47:15;;;;;;;;;5.33;5.33;;;;;;;;5060682;27;45501;-60
2023/04/10 12:49:40;;;;;;;;;8.67;6.00;;;;;;;;5074158;27;45581;-58
2023/04/10 12:52:05;;;;;;;;;5.00;5.00;;;;;;;;5073903;27;46230;-60
2023/04/10 12:54:32;;;;;;;;;5.00;5.00;;;;;;;;5074196;27;45381;-59
2023/04/10 12:56:58;;;;;;;;;6.00;6.00;;;;;;;;5074327;27;45508;-60
2023/04/10 12:59:23;;;;;;;;;3.33;3.33;;;;;;;;5073900;27;45351;-59
2023/04/10 13:01:49;;;;;;;;;5.00;4.00;;;;;;;;5073838;28;45793;-59
2023/04/10 13:04:14;;;;;;;;;5.67;4.00;;;;;;;;5073962;27;45484;-60
2023/04/10 13:06:46;;;;;;;;;4.33;4.33;;;;;;;;5074141;27;45470;-61
2023/04/10 13:09:14;;;;;;;;;5.00;5.00;;;;;;;;5073641;27;45576;-59
2023/04/10 13:11:40;;;;;;;;;4.67;4.67;;;;;;;;5073879;27;45552;-60
2023/04/10 13:14:05;;;;;;;;;6.33;6.33;;;;;;;;5073844;27;45551;-60
2023/04/10 13:16:31;;;;;;;;;7.33;6.00;;;;;;;;5071949;27;45778;-60
2023/04/10 13:18:56;;;;;;;;;5.33;5.33;;;;;;;;5073984;27;45539;-59
2023/04/10 13:21:24;;;;;;;;;6.33;5.00;;;;;;;;5073554;27;46072;-60
2023/04/10 13:23:50;;;;;;;;;3.00;3.00;;;;;;;;5073790;27;45569;-59
2023/04/10 13:26:15;;;;;;;;;5.33;4.00;;;;;;;;5073508;27;45469;-60
2023/04/10 13:28:40;;;;;;;;;6.00;6.00;;;;;;;;5073637;27;45529;-60
2023/04/10 13:31:05;;;;;;;;;6.67;5.00;;;;;;;;5073346;27;45477;-60
2023/04/10 13:33:30;;;;;;;;;5.33;5.33;;;;;;;;5073175;27;45656;-59
2023/04/10 13:35:56;;;;;;;;;5.00;3.67;;;;;;;;5072664;27;45752;-60
2023/04/10 13:38:21;;;;;;;;;3.33;3.33;;;;;;;;5073261;27;45527;-60
2023/04/10 13:40:46;;;;;;;;;3.00;3.00;;;;;;;;5071727;27;45719;-60
2023/04/10 13:43:12;;;;;;;;;4.00;3.00;;;;;;;;5070769;27;45558;-60
2023/04/10 13:45:37;;;;;;;;;2.00;2.00;;;;;;;;5072156;28;45527;-60
2023/04/10 13:48:02;;;;;;;;;3.00;3.00;;;;;;;;5070623;27;45582;-61
2023/04/10 13:50:27;;;;;;;;;4.67;3.67;;;;;;;;5070766;27;46275;-60
2023/04/10 13:53:01;;;;;;;;;5.67;3.00;;;;;;;;5073434;27;45417;-60
2023/04/10 13:55:26;;;;;;;;;4.00;4.00;;;;;;;;5072888;27;45500;-62
2023/04/10 13:57:51;;;;;;;;;5.33;4.00;;;;;;;;5062075;27;45617;-63
2023/04/10 14:00:17;;;;;;;;;3.00;3.00;;;;;;;;5071430;28;45500;-62
2023/04/10 14:02:42;;;;;;;;;4.67;4.33;;;;;;;;5071676;27;45591;-63
2023/04/10 14:05:07;;;;;;;;;3.33;2.33;;;;;;;;5073072;27;45521;-63
2023/04/10 14:07:33;;;;;;;;;3.00;3.00;;;;;;;;5072796;27;45724;-63
2023/04/10 14:09:58;;;;;;;;;5.67;4.33;;;;;;;;5071615;27;46002;-62
2023/04/10 14:12:24;;;;;;;;;4.00;4.00;;;;;;;;5070981;27;45609;-63
2023/04/10 14:14:49;;;;;;;;;2.67;2.67;;;;;;;;5072790;27;45455;-62
2023/04/10 14:17:14;;;;;;;;;3.00;3.00;;;;;;;;5072781;28;45505;-62
2023/04/10 14:19:40;;;;;;;;;2.00;2.00;;;;;;;;5072842;27;45556;-61
2023/04/10 14:22:05;;;;;;;;;3.00;3.00;;;;;;;;5070997;27;45395;-64
2023/04/10 14:24:30;;;;;;;;;3.00;3.00;;;;;;;;5070517;27;45511;-64